Time;durP1;ratioP1;P1;durP2;ratioP2;P2;SDS_P1;SDS_P2;PMS_P1;PMS_P2;Temp;Humidity;BMP_temperature;BMP_pressure;BME280_temperature;BME280_humidity;BME280_pressure;Samples;Min_cycle;Max_cycle;Signal;HPM_P1;HPM_P2
2021/01/05 00:02:00;;;;;;;21.35;15.60;;;;;;;;;;5118174;28;20454;-87
2021/01/05 00:04:33;;;;;;;22.53;16.80;;;;;;;;;;5102388;28;20176;-85
2021/01/05 00:06:59;;;;;;;22.63;16.63;;;;;;;;;;5097948;28;20423;-88
2021/01/05 00:09:25;;;;;;;21.65;16.13;;;;;;;;;;5098707;28;20564;-86
2021/01/05 00:11:58;;;;;;;26.13;15.73;;;;;;;;;;5097930;28;20210;-86
2021/01/05 00:14:25;;;;;;;25.38;17.45;;;;;;;;;;5096293;28;20168;-86
2021/01/05 00:16:51;;;;;;;21.65;14.95;;;;;;;;;;5104416;28;20168;-86
2021/01/05 00:19:17;;;;;;;25.98;16.83;;;;;;;;;;5097215;28;20554;-86
2021/01/05 00:21:43;;;;;;;23.58;17.02;;;;;;;;;;5096846;28;20204;-85
2021/01/05 00:24:09;;;;;;;23.42;15.95;;;;;;;;;;5097876;28;20191;-86
2021/01/05 00:26:36;;;;;;;21.13;17.25;;;;;;;;;;5098175;28;20241;-86
2021/01/05 00:29:02;;;;;;;23.73;16.15;;;;;;;;;;5112712;28;20176;-88
2021/01/05 00:31:28;;;;;;;22.30;16.00;;;;;;;;;;5102187;28;20187;-88
2021/01/05 00:33:54;;;;;;;21.88;15.65;;;;;;;;;;5102527;28;20180;-86
2021/01/05 00:36:20;;;;;;;24.23;17.08;;;;;;;;;;5101410;28;20188;-86
2021/01/05 00:38:46;;;;;;;23.80;16.10;;;;;;;;;;5094871;28;20188;-87
2021/01/05 00:41:12;;;;;;;23.53;16.97;;;;;;;;;;5096675;28;20421;-87
2021/01/05 00:43:39;;;;;;;21.60;13.57;;;;;;;;;;5094826;28;20457;-85
2021/01/05 00:46:06;;;;;;;30.48;17.90;;;;;;;;;;5090445;28;20442;-85
2021/01/05 00:48:32;;;;;;;23.77;15.85;;;;;;;;;;5100000;28;20188;-85
2021/01/05 00:50:58;;;;;;;22.98;16.10;;;;;;;;;;5099891;28;20172;-86
2021/01/05 00:53:24;;;;;;;23.85;16.80;;;;;;;;;;5096735;28;20247;-90
2021/01/05 00:55:50;;;;;;;24.40;16.90;;;;;;;;;;5095875;28;20206;-90
2021/01/05 00:58:16;;;;;;;25.80;16.88;;;;;;;;;;5102345;28;20192;-86
2021/01/05 01:00:42;;;;;;;22.42;15.38;;;;;;;;;;5097591;28;20234;-85
2021/01/05 01:03:08;;;;;;;27.85;15.32;;;;;;;;;;5097720;28;20561;-87
2021/01/05 01:05:34;;;;;;;24.52;15.38;;;;;;;;;;5095917;28;20243;-87
2021/01/05 01:08:00;;;;;;;26.42;17.55;;;;;;;;;;5097188;28;20247;-85
2021/01/05 01:10:26;;;;;;;22.53;15.70;;;;;;;;;;5102052;28;20190;-85
2021/01/05 01:12:52;;;;;;;20.80;16.15;;;;;;;;;;5101822;28;20608;-85
2021/01/05 01:15:18;;;;;;;22.42;16.27;;;;;;;;;;5098218;28;20404;-89
2021/01/05 01:17:44;;;;;;;21.67;16.45;;;;;;;;;;5099352;28;20192;-86
2021/01/05 01:20:11;;;;;;;21.15;14.93;;;;;;;;;;5097604;28;20183;-85
2021/01/05 01:22:37;;;;;;;20.90;15.43;;;;;;;;;;5094247;28;20229;-85
2021/01/05 01:25:03;;;;;;;24.20;16.58;;;;;;;;;;5100880;28;20211;-84
2021/01/05 01:27:29;;;;;;;22.50;16.20;;;;;;;;;;5100262;28;20210;-85
2021/01/05 01:29:55;;;;;;;23.23;16.40;;;;;;;;;;5094921;28;20180;-85
2021/01/05 01:32:21;;;;;;;21.57;15.67;;;;;;;;;;5097433;28;20191;-83
2021/01/05 01:34:47;;;;;;;20.83;15.52;;;;;;;;;;5112920;28;20515;-85
2021/01/05 01:37:14;;;;;;;24.67;15.30;;;;;;;;;;5101498;28;20186;-86
2021/01/05 01:39:41;;;;;;;21.70;15.90;;;;;;;;;;5100727;28;20470;-85
2021/01/05 01:42:08;;;;;;;20.83;15.23;;;;;;;;;;5099478;28;20278;-86
2021/01/05 01:44:37;;;;;;;22.15;15.25;;;;;;;;;;5101333;28;20235;-85
2021/01/05 01:47:08;;;;;;;21.58;14.85;;;;;;;;;;5111521;28;20233;-86
2021/01/05 01:49:34;;;;;;;22.70;16.65;;;;;;;;;;5096668;28;20180;-85
2021/01/05 01:52:00;;;;;;;22.92;15.77;;;;;;;;;;5100519;28;20183;-84
2021/01/05 01:54:39;;;;;;;22.60;16.00;;;;;;;;;;5096686;28;20190;-84
2021/01/05 01:57:14;;;;;;;21.05;15.68;;;;;;;;;;5099149;28;20557;-85
2021/01/05 01:59:46;;;;;;;23.50;16.13;;;;;;;;;;5095633;28;20683;-85
2021/01/05 02:02:14;;;;;;;25.55;16.30;;;;;;;;;;5097261;28;20230;-85
2021/01/05 02:04:55;;;;;;;24.33;16.60;;;;;;;;;;5100861;28;20304;-83
2021/01/05 02:07:21;;;;;;;22.52;15.65;;;;;;;;;;5094303;28;20189;-85
2021/01/05 02:10:03;;;;;;;26.77;17.13;;;;;;;;;;5101226;28;20306;-85
2021/01/05 02:12:32;;;;;;;22.80;16.00;;;;;;;;;;5100043;28;20282;-85
2021/01/05 02:14:59;;;;;;;21.67;14.93;;;;;;;;;;5094890;28;20256;-84
2021/01/05 02:17:44;;;;;;;20.48;15.50;;;;;;;;;;5095695;28;20199;-85
2021/01/05 02:20:13;;;;;;;23.35;16.52;;;;;;;;;;5098324;28;20196;-85
2021/01/05 02:22:50;;;;;;;23.50;16.83;;;;;;;;;;5091596;28;20200;-85
2021/01/05 02:25:35;;;;;;;23.98;16.70;;;;;;;;;;5100791;28;20188;-85
2021/01/05 02:28:02;;;;;;;24.13;17.13;;;;;;;;;;5093586;28;20188;-85
2021/01/05 02:30:34;;;;;;;22.98;17.40;;;;;;;;;;5087978;28;20540;-85
2021/01/05 02:32:59;;;;;;;24.05;16.23;;;;;;;;;;5098214;28;20186;-86
2021/01/05 02:35:46;;;;;;;25.90;16.63;;;;;;;;;;5104608;28;20266;-85
2021/01/05 02:38:15;;;;;;;27.02;17.30;;;;;;;;;;5130683;27;20420;-87
2021/01/05 02:40:53;;;;;;;22.73;16.10;;;;;;;;;;5104831;28;20180;-86
2021/01/05 02:43:36;;;;;;;21.73;16.65;;;;;;;;;;5103951;28;20207;-86
2021/01/05 02:46:20;;;;;;;25.35;17.88;;;;;;;;;;5105019;28;20213;-86
2021/01/05 02:48:55;;;;;;;29.38;17.98;;;;;;;;;;5098896;28;20199;-85
2021/01/05 02:51:30;;;;;;;25.70;17.63;;;;;;;;;;5104191;28;20187;-86
2021/01/05 02:53:59;;;;;;;24.70;15.85;;;;;;;;;;5098959;28;20221;-86
2021/01/05 02:56:28;;;;;;;25.90;17.65;;;;;;;;;;5098984;28;20247;-83
2021/01/05 02:58:54;;;;;;;26.65;17.00;;;;;;;;;;5099114;28;20533;-86
2021/01/05 03:01:20;;;;;;;23.57;16.80;;;;;;;;;;5104801;28;20195;-87
2021/01/05 03:03:47;;;;;;;26.23;17.10;;;;;;;;;;5103660;28;20483;-84
2021/01/05 03:06:25;;;;;;;25.85;17.38;;;;;;;;;;5101249;28;20218;-86
2021/01/05 03:09:07;;;;;;;27.75;17.35;;;;;;;;;;5100284;28;20180;-86
2021/01/05 03:11:39;;;;;;;25.45;18.33;;;;;;;;;;5097623;28;20180;-87
2021/01/05 03:14:09;;;;;;;28.35;18.25;;;;;;;;;;5105076;28;20517;-85
2021/01/05 03:16:39;;;;;;;23.15;16.33;;;;;;;;;;5103666;28;20179;-85
2021/01/05 03:19:05;;;;;;;24.20;17.25;;;;;;;;;;5096109;28;20199;-86
2021/01/05 03:21:34;;;;;;;27.23;18.35;;;;;;;;;;5101960;28;20236;-85
2021/01/05 03:24:00;;;;;;;27.58;17.40;;;;;;;;;;5102757;28;20239;-85
2021/01/05 03:26:29;;;;;;;26.10;17.38;;;;;;;;;;5101230;28;20176;-84
2021/01/05 03:28:55;;;;;;;23.10;15.30;;;;;;;;;;5099084;28;20656;-85
2021/01/05 03:31:24;;;;;;;25.33;16.88;;;;;;;;;;5103614;28;20210;-85
2021/01/05 03:33:53;;;;;;;20.77;15.40;;;;;;;;;;5103481;28;20418;-85
2021/01/05 03:36:19;;;;;;;25.27;17.90;;;;;;;;;;5100114;28;20641;-86
2021/01/05 03:38:45;;;;;;;30.63;16.23;;;;;;;;;;5101526;28;20791;-86
2021/01/05 03:41:11;;;;;;;20.38;15.07;;;;;;;;;;5102028;28;20194;-87
2021/01/05 03:43:37;;;;;;;24.77;16.15;;;;;;;;;;5095855;28;20203;-86
2021/01/05 03:46:03;;;;;;;22.92;16.35;;;;;;;;;;5102959;28;20275;-84
2021/01/05 03:48:29;;;;;;;24.15;14.98;;;;;;;;;;5100767;28;20196;-85
2021/01/05 03:50:55;;;;;;;25.92;16.05;;;;;;;;;;5102459;28;20180;-85
2021/01/05 03:53:21;;;;;;;25.23;14.80;;;;;;;;;;5103803;28;20179;-84
2021/01/05 03:55:47;;;;;;;21.50;13.98;;;;;;;;;;5102700;28;20179;-85
2021/01/05 03:58:13;;;;;;;22.92;14.93;;;;;;;;;;5103244;28;20207;-87
2021/01/05 04:00:39;;;;;;;21.65;14.38;;;;;;;;;;5101910;28;20231;-86
2021/01/05 04:03:05;;;;;;;25.55;16.15;;;;;;;;;;5101090;28;20290;-87
2021/01/05 04:05:31;;;;;;;25.63;15.68;;;;;;;;;;5101141;28;20250;-87
2021/01/05 04:07:57;;;;;;;26.52;14.27;;;;;;;;;;5102200;28;20168;-85
2021/01/05 04:10:23;;;;;;;20.52;15.27;;;;;;;;;;5102744;28;20188;-84
2021/01/05 04:12:50;;;;;;;23.42;15.32;;;;;;;;;;5100244;28;20187;-85
2021/01/05 04:15:18;;;;;;;27.52;16.02;;;;;;;;;;5100872;28;20202;-85
2021/01/05 04:17:44;;;;;;;27.73;15.95;;;;;;;;;;5099951;28;20207;-86
2021/01/05 04:20:10;;;;;;;25.90;16.67;;;;;;;;;;5098617;28;20186;-86
2021/01/05 04:22:36;;;;;;;28.98;17.25;;;;;;;;;;5098231;28;20210;-86
2021/01/05 04:25:03;;;;;;;24.70;16.00;;;;;;;;;;5103096;28;20610;-88
2021/01/05 04:27:29;;;;;;;22.60;16.15;;;;;;;;;;5099596;28;20189;-88
2021/01/05 04:29:55;;;;;;;30.70;16.90;;;;;;;;;;5101377;28;20191;-85
2021/01/05 04:32:21;;;;;;;21.97;14.50;;;;;;;;;;5103567;28;20180;-88
2021/01/05 04:34:47;;;;;;;26.50;17.05;;;;;;;;;;5113398;28;21192;-86
2021/01/05 04:37:13;;;;;;;28.88;17.98;;;;;;;;;;5094250;28;20265;-85
2021/01/05 04:39:39;;;;;;;26.13;16.15;;;;;;;;;;5098748;28;20184;-87
2021/01/05 04:42:23;;;;;;;29.08;17.02;;;;;;;;;;5097859;28;20233;-86
2021/01/05 04:45:02;;;;;;;25.50;16.05;;;;;;;;;;5094718;28;20694;-84
2021/01/05 04:47:51;;;;;;;28.27;17.10;;;;;;;;;;5098913;28;20206;-86
2021/01/05 04:50:23;;;;;;;29.10;17.15;;;;;;;;;;5107880;28;20176;-85
2021/01/05 04:52:57;;;;;;;27.52;16.08;;;;;;;;;;5095510;28;20171;-85
2021/01/05 04:55:29;;;;;;;31.65;16.83;;;;;;;;;;5102043;28;20206;-86
2021/01/05 04:58:02;;;;;;;26.10;16.70;;;;;;;;;;5101864;28;20217;-86
2021/01/05 05:00:29;;;;;;;26.20;16.63;;;;;;;;;;5088788;28;20242;-85
2021/01/05 05:03:01;;;;;;;26.83;17.90;;;;;;;;;;5096481;28;20211;-86
2021/01/05 05:05:27;;;;;;;23.10;15.30;;;;;;;;;;5101911;28;20200;-85
2021/01/05 05:08:02;;;;;;;25.30;16.60;;;;;;;;;;5092685;28;20168;-88
2021/01/05 05:10:31;;;;;;;27.23;17.23;;;;;;;;;;5101927;28;20433;-86
2021/01/05 05:12:57;;;;;;;27.58;17.52;;;;;;;;;;5101181;28;20198;-86
2021/01/05 05:15:32;;;;;;;25.80;16.27;;;;;;;;;;5101576;28;20184;-86
2021/01/05 05:18:17;;;;;;;26.70;17.75;;;;;;;;;;5096057;28;20449;-86
2021/01/05 05:21:02;;;;;;;26.67;16.48;;;;;;;;;;5094314;28;20184;-85
2021/01/05 05:23:40;;;;;;;30.77;17.63;;;;;;;;;;5099475;28;20231;-85
2021/01/05 05:26:06;;;;;;;26.60;16.67;;;;;;;;;;5113797;28;20258;-87
2021/01/05 05:28:39;;;;;;;31.42;17.60;;;;;;;;;;5101023;28;20191;-85
2021/01/05 05:31:05;;;;;;;26.58;17.58;;;;;;;;;;5094359;28;20238;-86
2021/01/05 05:33:37;;;;;;;33.03;19.45;;;;;;;;;;5099853;28;20188;-85
2021/01/05 05:36:11;;;;;;;28.40;17.50;;;;;;;;;;5096626;28;20203;-86
2021/01/05 05:38:55;;;;;;;26.83;16.00;;;;;;;;;;5100275;28;20206;-84
2021/01/05 05:41:32;;;;;;;29.20;17.83;;;;;;;;;;5098391;28;20175;-84
2021/01/05 05:44:20;;;;;;;24.60;16.55;;;;;;;;;;5095733;28;20171;-87
2021/01/05 05:46:48;;;;;;;27.27;18.05;;;;;;;;;;5096784;28;20195;-86
2021/01/05 05:49:34;;;;;;;28.20;18.38;;;;;;;;;;5101560;28;20191;-86
2021/01/05 05:52:02;;;;;;;26.40;17.40;;;;;;;;;;5101988;28;20656;-85
2021/01/05 05:54:28;;;;;;;26.70;17.55;;;;;;;;;;5101182;28;20180;-85
2021/01/05 05:56:54;;;;;;;26.83;17.35;;;;;;;;;;5099107;28;20274;-86
2021/01/05 05:59:25;;;;;;;24.13;15.97;;;;;;;;;;5096517;28;20215;-85
2021/01/05 06:01:51;;;;;;;19.77;15.07;;;;;;;;;;5108255;28;20473;-86
2021/01/05 06:04:17;;;;;;;25.15;16.08;;;;;;;;;;5091007;28;20187;-85
2021/01/05 06:06:45;;;;;;;23.15;14.82;;;;;;;;;;5095948;28;22739;-89
2021/01/05 06:09:11;;;;;;;17.98;14.25;;;;;;;;;;5102317;28;20215;-86
2021/01/05 06:11:37;;;;;;;23.80;14.90;;;;;;;;;;5098689;28;20176;-85
2021/01/05 06:14:06;;;;;;;24.83;15.63;;;;;;;;;;5106734;28;20402;-86
2021/01/05 06:16:33;;;;;;;25.33;16.10;;;;;;;;;;5104764;28;20205;-85
2021/01/05 06:18:59;;;;;;;23.45;14.65;;;;;;;;;;5100093;28;20184;-86
2021/01/05 06:21:25;;;;;;;24.73;15.68;;;;;;;;;;5100349;28;20184;-85
2021/01/05 06:23:52;;;;;;;24.75;15.52;;;;;;;;;;5107093;28;20200;-87
2021/01/05 06:26:18;;;;;;;23.52;15.85;;;;;;;;;;5102151;28;20543;-86
2021/01/05 06:28:45;;;;;;;21.70;14.15;;;;;;;;;;5103834;28;20645;-86
2021/01/05 06:31:11;;;;;;;26.77;16.63;;;;;;;;;;5105020;28;20274;-86
2021/01/05 06:33:37;;;;;;;23.45;15.20;;;;;;;;;;5103684;28;20177;-86
2021/01/05 06:36:03;;;;;;;20.80;14.15;;;;;;;;;;5103630;28;20603;-86
2021/01/05 06:38:29;;;;;;;24.52;16.55;;;;;;;;;;5103086;28;20176;-86
2021/01/05 06:40:55;;;;;;;21.73;14.00;;;;;;;;;;5099645;28;20172;-86
2021/01/05 06:43:21;;;;;;;22.95;14.70;;;;;;;;;;5104410;28;21029;-86
2021/01/05 06:45:47;;;;;;;22.47;14.63;;;;;;;;;;5100705;28;20198;-85
2021/01/05 06:48:13;;;;;;;21.13;13.88;;;;;;;;;;5101925;28;20431;-86
2021/01/05 06:50:39;;;;;;;22.88;15.90;;;;;;;;;;5102615;28;20203;-87
2021/01/05 06:53:05;;;;;;;21.90;15.00;;;;;;;;;;5100348;28;20172;-87
2021/01/05 06:55:31;;;;;;;22.20;13.88;;;;;;;;;;5104427;28;20210;-86
2021/01/05 06:57:57;;;;;;;21.35;14.40;;;;;;;;;;5103855;28;20192;-86
2021/01/05 07:00:25;;;;;;;26.60;16.88;;;;;;;;;;5104154;28;20215;-87
2021/01/05 07:02:51;;;;;;;20.00;14.60;;;;;;;;;;5113592;28;20219;-86
2021/01/05 07:05:17;;;;;;;22.10;14.30;;;;;;;;;;5100611;28;20175;-86
2021/01/05 07:07:44;;;;;;;22.00;14.88;;;;;;;;;;5103778;28;20218;-87
2021/01/05 07:10:10;;;;;;;20.52;13.15;;;;;;;;;;5104228;28;20180;-87
2021/01/05 07:12:36;;;;;;;22.60;16.48;;;;;;;;;;5100897;28;20191;-86
2021/01/05 07:15:03;;;;;;;22.92;14.55;;;;;;;;;;5098824;28;20252;-88
2021/01/05 07:17:29;;;;;;;20.75;13.57;;;;;;;;;;5101286;28;20207;-85
2021/01/05 07:19:55;;;;;;;19.52;13.52;;;;;;;;;;5098028;28;20179;-86
2021/01/05 07:22:20;;;;;;;28.05;20.35;;;;;;;;;;5104439;28;20203;-86
2021/01/05 07:24:46;;;;;;;23.60;15.73;;;;;;;;;;5095641;28;20203;-86
2021/01/05 07:27:13;;;;;;;20.60;15.50;;;;;;;;;;5098867;28;20450;-87
2021/01/05 07:29:38;;;;;;;24.92;16.45;;;;;;;;;;5097312;28;20180;-86
2021/01/05 07:32:05;;;;;;;25.13;15.00;;;;;;;;;;5099540;28;20172;-86
2021/01/05 07:34:32;;;;;;;24.75;14.55;;;;;;;;;;5103875;28;20184;-86
2021/01/05 07:37:00;;;;;;;23.88;15.57;;;;;;;;;;5099343;28;20283;-86
2021/01/05 07:39:27;;;;;;;24.05;17.20;;;;;;;;;;5098864;28;20192;-86
2021/01/05 07:42:09;;;;;;;21.88;14.07;;;;;;;;;;5102525;28;20203;-87
2021/01/05 07:44:35;;;;;;;21.67;15.10;;;;;;;;;;5102654;28;20176;-86
2021/01/05 07:47:04;;;;;;;22.23;14.57;;;;;;;;;;5114705;28;20176;-86
2021/01/05 07:49:30;;;;;;;21.38;14.55;;;;;;;;;;5103123;28;20176;-86
2021/01/05 07:51:56;;;;;;;24.20;15.35;;;;;;;;;;5103922;28;20213;-86
2021/01/05 07:54:22;;;;;;;25.97;16.20;;;;;;;;;;5101974;28;20199;-86
2021/01/05 07:56:48;;;;;;;24.05;16.42;;;;;;;;;;5100142;28;20456;-87
2021/01/05 07:59:16;;;;;;;24.13;16.70;;;;;;;;;;5088915;28;20219;-86
2021/01/05 08:01:42;;;;;;;27.85;15.85;;;;;;;;;;5095892;28;20175;-86
2021/01/05 08:04:08;;;;;;;21.92;15.88;;;;;;;;;;5101996;28;20190;-87
2021/01/05 08:06:34;;;;;;;24.10;15.40;;;;;;;;;;5102401;28;20549;-86
2021/01/05 08:09:00;;;;;;;26.13;15.88;;;;;;;;;;5093297;28;20192;-85
2021/01/05 08:11:34;;;;;;;26.23;16.75;;;;;;;;;;5085874;28;20180;-85
2021/01/05 08:17:08;;;;;;;23.90;15.77;;;;;;;;;;5102488;28;20202;-87
2021/01/05 08:19:34;;;;;;;21.58;15.75;;;;;;;;;;5098833;28;20255;-88
2021/01/05 08:22:07;;;;;;;22.02;14.30;;;;;;;;;;5099419;28;20240;-87
2021/01/05 08:27:36;;;;;;;22.63;16.33;;;;;;;;;;5093024;28;20194;-87
2021/01/05 08:30:03;;;;;;;22.73;14.77;;;;;;;;;;5096661;28;20356;-88
2021/01/05 08:32:29;;;;;;;22.08;15.05;;;;;;;;;;5094173;28;20200;-85
2021/01/05 08:34:55;;;;;;;24.57;16.40;;;;;;;;;;5093163;28;20320;-84
2021/01/05 08:37:21;;;;;;;23.10;14.53;;;;;;;;;;5094769;28;20442;-87
2021/01/05 08:39:47;;;;;;;24.23;14.85;;;;;;;;;;5097399;28;20458;-88
2021/01/05 08:42:13;;;;;;;23.70;16.15;;;;;;;;;;5100118;28;20215;-88
2021/01/05 08:44:39;;;;;;;26.08;16.60;;;;;;;;;;5094021;28;20542;-88
2021/01/05 08:47:05;;;;;;;25.58;16.77;;;;;;;;;;5092150;28;20235;-87
2021/01/05 08:49:32;;;;;;;25.58;16.90;;;;;;;;;;5096806;28;20686;-88
2021/01/05 08:51:58;;;;;;;23.60;16.17;;;;;;;;;;5094798;28;20413;-87
2021/01/05 08:54:25;;;;;;;23.00;15.52;;;;;;;;;;5097944;28;20185;-85
2021/01/05 08:56:59;;;;;;;33.15;16.67;;;;;;;;;;5100864;28;20343;-87
2021/01/05 08:59:26;;;;;;;23.80;15.35;;;;;;;;;;5116386;28;20227;-87
2021/01/05 09:01:51;;;;;;;30.20;17.35;;;;;;;;;;5096555;28;20184;-88
2021/01/05 09:04:17;;;;;;;26.40;16.50;;;;;;;;;;5094816;28;20661;-87
2021/01/05 09:06:47;;;;;;;23.77;14.68;;;;;;;;;;5097176;28;20218;-88
2021/01/05 09:09:13;;;;;;;28.50;16.92;;;;;;;;;;5098885;28;20180;-88
2021/01/05 09:11:39;;;;;;;29.95;16.40;;;;;;;;;;5094762;28;20541;-88
2021/01/05 09:14:05;;;;;;;28.85;17.50;;;;;;;;;;5093648;28;20176;-87
2021/01/05 09:16:32;;;;;;;26.07;17.30;;;;;;;;;;5101123;28;20187;-88
2021/01/05 09:18:58;;;;;;;27.17;16.88;;;;;;;;;;5102190;28;20450;-88
2021/01/05 09:21:25;;;;;;;30.95;16.98;;;;;;;;;;5096028;28;20184;-86
2021/01/05 09:23:52;;;;;;;25.80;16.50;;;;;;;;;;5095192;28;20227;-89
2021/01/05 09:26:19;;;;;;;28.02;16.90;;;;;;;;;;5095174;28;20226;-89
2021/01/05 09:28:45;;;;;;;30.25;18.13;;;;;;;;;;5101288;28;20278;-88
2021/01/05 09:31:11;;;;;;;28.08;16.98;;;;;;;;;;5096859;28;20192;-88
2021/01/05 09:33:37;;;;;;;29.88;16.45;;;;;;;;;;5098961;28;20184;-87
2021/01/05 09:36:03;;;;;;;30.27;19.00;;;;;;;;;;5099722;28;20215;-88
2021/01/05 09:38:29;;;;;;;29.05;17.58;;;;;;;;;;5100757;28;20190;-87
2021/01/05 09:40:55;;;;;;;30.80;17.80;;;;;;;;;;5098469;28;20184;-87
2021/01/05 09:43:21;;;;;;;30.30;19.05;;;;;;;;;;5104456;28;20461;-89
2021/01/05 09:45:47;;;;;;;29.23;20.15;;;;;;;;;;5106293;28;20187;-89
2021/01/05 09:48:14;;;;;;;31.08;20.08;;;;;;;;;;5104429;28;20188;-88
2021/01/05 09:50:42;;;;;;;30.35;18.77;;;;;;;;;;5109824;28;20190;-88
2021/01/05 09:53:08;;;;;;;30.75;18.88;;;;;;;;;;5112561;28;20187;-89
2021/01/05 09:55:34;;;;;;;30.25;19.27;;;;;;;;;;5104326;28;20183;-89
2021/01/05 09:58:00;;;;;;;32.90;18.40;;;;;;;;;;5100006;28;20284;-88
2021/01/05 10:00:27;;;;;;;35.22;20.20;;;;;;;;;;5100611;28;20677;-89
2021/01/05 10:02:53;;;;;;;27.08;17.63;;;;;;;;;;5105274;28;20273;-87
2021/01/05 10:05:19;;;;;;;29.40;16.63;;;;;;;;;;5104037;28;20200;-89
2021/01/05 10:07:46;;;;;;;29.75;17.80;;;;;;;;;;5102618;28;20444;-88
2021/01/05 10:10:16;;;;;;;33.28;19.15;;;;;;;;;;5099886;28;20184;-88
2021/01/05 10:12:42;;;;;;;34.88;19.10;;;;;;;;;;5104702;28;20188;-88
2021/01/05 10:15:09;;;;;;;31.13;18.08;;;;;;;;;;5103769;28;20194;-88
2021/01/05 10:17:35;;;;;;;34.40;20.35;;;;;;;;;;5114635;28;20179;-88
2021/01/05 10:20:01;;;;;;;35.85;19.73;;;;;;;;;;5100737;28;20206;-89
2021/01/05 10:22:27;;;;;;;33.92;18.60;;;;;;;;;;5099795;28;20255;-87
2021/01/05 10:24:53;;;;;;;33.17;19.65;;;;;;;;;;5104948;28;20190;-88
2021/01/05 10:27:19;;;;;;;35.75;20.95;;;;;;;;;;5105329;28;20615;-87
2021/01/05 10:29:45;;;;;;;29.40;19.90;;;;;;;;;;5098711;28;20208;-89
2021/01/05 10:32:11;;;;;;;33.67;20.58;;;;;;;;;;5100057;28;20245;-89
2021/01/05 10:34:37;;;;;;;32.35;20.20;;;;;;;;;;5105494;28;20179;-88
2021/01/05 10:37:03;;;;;;;30.08;19.02;;;;;;;;;;5103294;28;20222;-88
2021/01/05 10:39:29;;;;;;;33.33;21.17;;;;;;;;;;5099670;28;20282;-87
2021/01/05 10:41:55;;;;;;;33.13;19.88;;;;;;;;;;5095145;28;20196;-88
2021/01/05 10:44:22;;;;;;;33.15;20.95;;;;;;;;;;5103908;28;20187;-87
2021/01/05 10:46:48;;;;;;;34.88;21.08;;;;;;;;;;5100783;28;20217;-88
2021/01/05 10:49:15;;;;;;;31.92;19.08;;;;;;;;;;5103203;28;20195;-88
2021/01/05 10:51:45;;;;;;;32.13;19.08;;;;;;;;;;5101229;28;20202;-88
2021/01/05 10:54:11;;;;;;;34.55;20.30;;;;;;;;;;5103751;28;20237;-88
2021/01/05 10:56:37;;;;;;;28.52;19.52;;;;;;;;;;5094444;28;20218;-87
2021/01/05 10:59:03;;;;;;;28.43;18.20;;;;;;;;;;5098244;28;20228;-88
2021/01/05 11:01:29;;;;;;;34.97;20.53;;;;;;;;;;5099755;28;20449;-88
2021/01/05 11:03:55;;;;;;;32.08;20.45;;;;;;;;;;5100709;28;20462;-86
2021/01/05 11:06:21;;;;;;;34.35;19.90;;;;;;;;;;5096742;28;20187;-88
2021/01/05 11:08:50;;;;;;;31.70;18.83;;;;;;;;;;5101246;28;20188;-87
2021/01/05 11:11:18;;;;;;;30.60;20.30;;;;;;;;;;5097703;28;20436;-87
2021/01/05 11:13:45;;;;;;;35.35;19.40;;;;;;;;;;5100947;28;20188;-87
2021/01/05 11:16:11;;;;;;;32.45;20.20;;;;;;;;;;5098602;28;20193;-87
2021/01/05 11:18:37;;;;;;;34.83;20.40;;;;;;;;;;5094367;28;20189;-88
2021/01/05 11:21:03;;;;;;;31.60;21.88;;;;;;;;;;5101483;28;20195;-86
2021/01/05 11:23:29;;;;;;;38.35;19.80;;;;;;;;;;5101038;28;20199;-86
2021/01/05 11:25:55;;;;;;;35.70;21.05;;;;;;;;;;5098805;28;20541;-88
2021/01/05 11:28:21;;;;;;;35.85;19.77;;;;;;;;;;5100239;28;20180;-88
2021/01/05 11:30:47;;;;;;;31.65;20.85;;;;;;;;;;5099911;28;20180;-88
2021/01/05 11:33:15;;;;;;;29.35;19.80;;;;;;;;;;5090996;28;20393;-88
2021/01/05 11:35:43;;;;;;;30.88;19.67;;;;;;;;;;5092779;28;20248;-88
2021/01/05 11:38:10;;;;;;;32.13;19.95;;;;;;;;;;5098400;28;20238;-86
2021/01/05 11:41:05;;;;;;;33.95;20.27;;;;;;;;;;5092294;28;20191;-87
2021/01/05 11:43:43;;;;;;;28.98;19.92;;;;;;;;;;5035454;28;20224;-87
2021/01/05 11:46:09;;;;;;;37.58;20.88;;;;;;;;;;5037544;28;20234;-88
2021/01/05 11:48:44;;;;;;;32.05;19.23;;;;;;;;;;5044074;28;20200;-87
2021/01/05 11:51:15;;;;;;;29.98;17.98;;;;;;;;;;5045925;28;20749;-88
2021/01/05 11:53:41;;;;;;;33.50;20.90;;;;;;;;;;5045297;28;20185;-87
2021/01/05 11:56:08;;;;;;;32.00;21.05;;;;;;;;;;5079518;28;20185;-88
2021/01/05 11:58:34;;;;;;;33.50;21.77;;;;;;;;;;5073804;28;20261;-87
2021/01/05 12:01:00;;;;;;;32.78;20.95;;;;;;;;;;5046596;28;20226;-87
2021/01/05 12:03:26;;;;;;;35.05;20.38;;;;;;;;;;5060652;28;20279;-87
2021/01/05 12:05:54;;;;;;;29.23;19.55;;;;;;;;;;5043854;28;20181;-89
2021/01/05 12:08:20;;;;;;;34.22;19.88;;;;;;;;;;5037067;28;20186;-87
2021/01/05 12:10:49;;;;;;;35.28;20.23;;;;;;;;;;5054665;28;20284;-88
2021/01/05 12:13:21;;;;;;;29.33;18.23;;;;;;;;;;5074761;28;20228;-86
2021/01/05 12:16:03;;;;;;;30.67;19.38;;;;;;;;;;5039715;28;20201;-88
2021/01/05 12:18:32;;;;;;;33.67;20.45;;;;;;;;;;5077245;28;20215;-86
2021/01/05 12:20:58;;;;;;;31.05;20.52;;;;;;;;;;5092364;28;20195;-88
2021/01/05 12:23:39;;;;;;;30.02;19.58;;;;;;;;;;5088942;28;20236;-88
2021/01/05 12:26:13;;;;;;;35.55;20.85;;;;;;;;;;5094284;28;20191;-88
2021/01/05 12:28:39;;;;;;;35.08;22.58;;;;;;;;;;5095143;28;20183;-88
2021/01/05 12:31:05;;;;;;;32.33;19.92;;;;;;;;;;5099663;28;20180;-87
2021/01/05 12:33:34;;;;;;;31.17;20.08;;;;;;;;;;5098483;28;20271;-88
2021/01/05 12:36:00;;;;;;;32.70;21.77;;;;;;;;;;5100762;28;20203;-87
2021/01/05 12:38:26;;;;;;;34.58;21.30;;;;;;;;;;5092273;28;20222;-88
2021/01/05 12:40:52;;;;;;;36.47;19.90;;;;;;;;;;5095737;28;20176;-89
2021/01/05 12:43:21;;;;;;;35.53;19.75;;;;;;;;;;5095016;28;20202;-89
2021/01/05 12:45:47;;;;;;;30.52;19.98;;;;;;;;;;5102572;28;20176;-89
2021/01/05 12:48:13;;;;;;;33.88;19.90;;;;;;;;;;5099286;28;20216;-88
2021/01/05 12:50:39;;;;;;;35.13;20.75;;;;;;;;;;5101193;28;20180;-88
2021/01/05 12:53:05;;;;;;;31.92;19.33;;;;;;;;;;5099395;28;20179;-88
2021/01/05 12:55:31;;;;;;;33.25;21.45;;;;;;;;;;5102539;28;20217;-87
2021/01/05 12:57:58;;;;;;;36.88;20.80;;;;;;;;;;5101689;28;20248;-87
2021/01/05 13:00:25;;;;;;;39.53;21.50;;;;;;;;;;5100063;28;20247;-88
2021/01/05 13:02:50;;;;;;;34.25;19.98;;;;;;;;;;5104244;28;20204;-89
2021/01/05 13:05:16;;;;;;;35.73;23.20;;;;;;;;;;5092577;28;20186;-86
2021/01/05 13:07:44;;;;;;;37.85;20.00;;;;;;;;;;5125887;27;20465;-86
2021/01/05 13:10:15;;;;;;;37.13;21.17;;;;;;;;;;5087250;28;20184;-86
2021/01/05 13:13:06;;;;;;;;;;;;;;;;;;;;;
2021/01/05 13:16:01;;;;;;;39.38;21.23;;;;;;;;;;5083494;28;20253;-87
2021/01/05 13:18:53;;;;;;;34.00;19.02;;;;;;;;;;5092362;28;20200;-87
2021/01/05 13:21:39;;;;;;;33.10;19.23;;;;;;;;;;5096553;28;20184;-85
2021/01/05 13:24:11;;;;;;;34.97;20.90;;;;;;;;;;5095060;28;20677;-86
2021/01/05 13:26:38;;;;;;;31.98;20.30;;;;;;;;;;5092527;28;20180;-85
2021/01/05 13:29:14;;;;;;;33.05;21.42;;;;;;;;;;5099581;28;20710;-87
2021/01/05 13:31:42;;;;;;;42.75;23.30;;;;;;;;;;5095558;28;20252;-86
2021/01/05 13:34:09;;;;;;;37.53;21.35;;;;;;;;;;5092066;28;20418;-86
2021/01/05 13:36:35;;;;;;;34.15;21.17;;;;;;;;;;5096507;28;20279;-86
2021/01/05 13:39:01;;;;;;;38.17;21.48;;;;;;;;;;5094352;28;20223;-86
2021/01/05 13:41:31;;;;;;;34.33;21.25;;;;;;;;;;5097079;28;20183;-87
2021/01/05 13:43:58;;;;;;;35.22;20.90;;;;;;;;;;5099786;28;20218;-86
2021/01/05 13:46:25;;;;;;;32.83;19.75;;;;;;;;;;5099305;28;20195;-85
2021/01/05 13:48:51;;;;;;;34.10;21.38;;;;;;;;;;5098702;28;20183;-87
2021/01/05 13:51:17;;;;;;;36.78;20.45;;;;;;;;;;5096313;28;20199;-84
2021/01/05 13:53:43;;;;;;;34.33;20.40;;;;;;;;;;5098938;28;20207;-84
2021/01/05 13:56:16;;;;;;;35.22;19.90;;;;;;;;;;5098089;28;20575;-85
2021/01/05 13:58:45;;;;;;;41.45;22.30;;;;;;;;;;5099350;28;20191;-87
2021/01/05 14:01:15;;;;;;;34.22;21.30;;;;;;;;;;5094406;28;20232;-85
2021/01/05 14:03:43;;;;;;;36.47;21.63;;;;;;;;;;5098672;28;20413;-85
2021/01/05 14:06:14;;;;;;;32.13;21.35;;;;;;;;;;5098475;28;20185;-85
2021/01/05 14:09:00;;;;;;;;;;;;;;;;;;;;;
2021/01/05 14:11:27;;;;;;;32.35;19.95;;;;;;;;;;5096634;28;20254;-84
2021/01/05 14:14:09;;;;;;;30.38;20.15;;;;;;;;;;5094270;28;20192;-86
2021/01/05 14:16:35;;;;;;;33.83;20.38;;;;;;;;;;5098401;28;20172;-85
2021/01/05 14:19:01;;;;;;;35.03;20.90;;;;;;;;;;5099946;28;20199;-86
2021/01/05 14:21:35;;;;;;;32.63;21.85;;;;;;;;;;5096521;28;20180;-86
2021/01/05 14:24:02;;;;;;;31.83;21.67;;;;;;;;;;5098961;28;20210;-85
2021/01/05 14:26:30;;;;;;;32.90;21.25;;;;;;;;;;5098542;28;20426;-85
2021/01/05 14:28:56;;;;;;;33.22;20.23;;;;;;;;;;5096500;28;20173;-86
2021/01/05 14:31:26;;;;;;;38.03;22.38;;;;;;;;;;5103277;28;20204;-88
2021/01/05 14:34:01;;;;;;;33.92;20.73;;;;;;;;;;5103184;28;20687;-87